Connor Township, Maine
Current Conditions -  °F | °C
As of 7:54 PM on Thursday 27 Nov 2014 (Local Time) from KCAR Reporting Station
Clear Clear  
Wind Chill:   Ceiling: Unl
Heat Index: 15°   Visibility: 10mi
Dew Point: 11°   Wind: 6mph
Humidity: 84%   Direction: 310°NW
Pressure: 29.97"   Gusts: NA
Location:  46.8928°N, 68.1493°W
Report Text: KCAR 280054Z AUTO 31005KT 10SM CLR M09/M12 A2997 RMK AO2 SLP163 T10941117
Loading
Personal Weather Stations






























Interactive Weather Map New forecast layout! Learn more

10-Day Weather Forecast

Advertisements
Track Severe Weather on mobile